createdAt,value
2024-02-23T00:01:32.451Z,97729.00
2024-02-23T00:04:00.419Z,97727.20
2024-02-23T00:06:29.507Z,97716.00
2024-02-23T00:08:57.658Z,97709.60
2024-02-23T00:11:26.309Z,97704.00
2024-02-23T00:13:54.338Z,97690.20
2024-02-23T00:16:22.453Z,97692.40
2024-02-23T00:18:50.594Z,97697.20
2024-02-23T00:21:18.544Z,97693.40
2024-02-23T00:23:46.443Z,97685.60
2024-02-23T00:26:14.349Z,97678.60
2024-02-23T00:28:42.291Z,97671.60
2024-02-23T00:31:10.475Z,97668.60
2024-02-23T00:33:38.855Z,97670.60
2024-02-23T00:36:07.190Z,97660.40
2024-02-23T00:38:35.833Z,97642.80
2024-02-23T00:41:04.032Z,97625.40
2024-02-23T00:43:42.768Z,97619.80
2024-02-23T00:46:10.991Z,97617.60
2024-02-23T00:48:39.734Z,97616.00
2024-02-23T00:51:08.927Z,97603.80
2024-02-23T00:53:36.879Z,97597.40
2024-02-23T00:56:05.409Z,97589.00
2024-02-23T00:58:33.556Z,97576.40
2024-02-23T01:01:01.967Z,97573.20
2024-02-23T01:03:30.334Z,97566.80
2024-02-23T01:05:58.471Z,97568.80
2024-02-23T01:08:26.823Z,97566.80
2024-02-23T01:10:54.865Z,97561.20
2024-02-23T01:13:23.295Z,97552.60
2024-02-23T01:15:52.043Z,97549.20
2024-02-23T01:18:21.099Z,97540.80
2024-02-23T01:20:48.988Z,97537.00
2024-02-23T01:23:16.958Z,97534.40
2024-02-23T01:25:45.440Z,97536.40
2024-02-23T01:28:14.001Z,97539.00
2024-02-23T01:30:42.077Z,97536.00
2024-02-23T01:33:10.246Z,97529.40
2024-02-23T01:35:38.637Z,97511.40
2024-02-23T01:38:06.740Z,97499.40
2024-02-23T01:40:37.745Z,97493.20
2024-02-23T01:43:06.674Z,97482.60
2024-02-23T01:45:34.705Z,97481.40
2024-02-23T01:48:03.798Z,97474.00
2024-02-23T01:50:32.434Z,97464.20
2024-02-23T01:53:04.027Z,97459.80
2024-02-23T01:55:36.458Z,97454.20
2024-02-23T01:58:08.265Z,97449.60
2024-02-23T02:00:38.270Z,97435.60
2024-02-23T02:03:08.866Z,97432.00
2024-02-23T02:05:39.412Z,97425.20
2024-02-23T02:08:08.429Z,97418.00
2024-02-23T02:10:36.636Z,97421.80
2024-02-23T02:13:07.012Z,97409.20
2024-02-23T02:15:35.001Z,97399.60
2024-02-23T02:18:03.104Z,97395.40
2024-02-23T02:20:35.228Z,97396.20
2024-02-23T02:23:08.777Z,97384.80
2024-02-23T02:25:36.829Z,97378.40
2024-02-23T02:28:09.065Z,97367.60
2024-02-23T02:30:37.140Z,97357.20
2024-02-23T02:33:05.377Z,97355.80
2024-02-23T02:35:33.376Z,97347.80
2024-02-23T02:38:01.389Z,97340.20
2024-02-23T02:40:29.274Z,97338.20
2024-02-23T02:42:57.108Z,97333.60
2024-02-23T02:45:25.501Z,97330.20
2024-02-23T02:47:57.576Z,97320.80
2024-02-23T02:50:26.146Z,97313.40
2024-02-23T02:52:54.615Z,97302.00
2024-02-23T02:55:22.766Z,97292.40
2024-02-23T02:57:50.709Z,97283.40
2024-02-23T03:00:18.834Z,97271.60
2024-02-23T03:02:46.813Z,97268.80
2024-02-23T03:05:14.916Z,97259.80
2024-02-23T03:07:42.992Z,97243.40
2024-02-23T03:10:11.120Z,97237.40
2024-02-23T03:12:39.116Z,97228.00
2024-02-23T03:15:07.586Z,97220.60
2024-02-23T03:17:35.854Z,97209.60
2024-02-23T03:20:12.768Z,97196.20
2024-02-23T03:22:40.956Z,97195.80
2024-02-23T03:25:09.530Z,97188.40
2024-02-23T03:27:39.676Z,97180.80
2024-02-23T03:30:09.677Z,97169.80
2024-02-23T03:32:39.070Z,97155.40
2024-02-23T03:35:09.883Z,97151.20
2024-02-23T03:37:40.985Z,97137.60
2024-02-23T03:40:11.467Z,97126.60
2024-02-23T03:42:39.608Z,97115.20
2024-02-23T03:45:07.762Z,97116.20
2024-02-23T03:47:36.340Z,97104.20
2024-02-23T03:50:07.067Z,97096.60
2024-02-23T03:52:35.000Z,97087.80
2024-02-23T03:55:04.810Z,97078.60
2024-02-23T03:57:32.841Z,97065.00
2024-02-23T04:00:00.992Z,97055.60
2024-02-23T04:02:31.345Z,97047.80
2024-02-23T04:04:59.267Z,97037.60
2024-02-23T04:07:27.622Z,97022.20
2024-02-23T04:09:56.274Z,97013.60
2024-02-23T04:12:24.933Z,97011.20
2024-02-23T04:14:53.955Z,96996.80
2024-02-23T04:17:21.821Z,96989.60
2024-02-23T04:19:50.056Z,96990.80
2024-02-23T04:22:19.227Z,96989.40
2024-02-23T04:24:48.032Z,96991.60
2024-02-23T04:27:15.940Z,96992.20
2024-02-23T04:29:44.025Z,96994.00
2024-02-23T04:32:12.131Z,96985.60
2024-02-23T04:34:41.579Z,96978.00
2024-02-23T04:37:09.482Z,96969.40
2024-02-23T04:39:39.239Z,96962.40
2024-02-23T04:42:09.684Z,96959.00
2024-02-23T04:44:38.018Z,96948.00
2024-02-23T04:47:06.385Z,96941.00
2024-02-23T04:49:34.559Z,96931.00
2024-02-23T04:52:02.762Z,96927.40
2024-02-23T04:54:30.643Z,96924.20
2024-02-23T04:56:58.562Z,96919.40
2024-02-23T04:59:26.904Z,96914.60
2024-02-23T05:01:56.365Z,96906.20
2024-02-23T05:04:24.728Z,96904.20
2024-02-23T05:06:52.596Z,96897.20
2024-02-23T05:09:22.213Z,96894.20
2024-02-23T05:11:50.532Z,96888.20
2024-02-23T05:14:18.590Z,96883.60
2024-02-23T05:16:46.495Z,96879.00
2024-02-23T05:19:14.816Z,96874.80
2024-02-23T05:21:42.706Z,96864.60
2024-02-23T05:24:13.221Z,96853.80
2024-02-23T05:26:42.522Z,96843.40
2024-02-23T05:29:10.429Z,96831.60
2024-02-23T05:31:48.579Z,96823.80
2024-02-23T05:34:17.000Z,96821.20
2024-02-23T05:36:46.897Z,96807.60
2024-02-23T05:39:16.715Z,96797.20
2024-02-23T05:41:45.847Z,96793.80
2024-02-23T05:44:14.880Z,96787.00
2024-02-23T05:46:45.773Z,96780.00
2024-02-23T05:49:13.885Z,96779.20
2024-02-23T05:51:42.207Z,96775.00
2024-02-23T05:54:11.322Z,96761.60
2024-02-23T05:56:39.246Z,96759.60
2024-02-23T05:59:08.637Z,96751.80
2024-02-23T06:01:37.441Z,96732.60
2024-02-23T06:04:06.641Z,96720.40
2024-02-23T06:06:35.285Z,96717.80
2024-02-23T06:09:04.873Z,96717.40
2024-02-23T06:11:32.876Z,96709.20
2024-02-23T06:14:00.830Z,96692.60
2024-02-23T06:16:28.746Z,96690.60
2024-02-23T06:18:56.712Z,96676.80
2024-02-23T06:21:26.997Z,96665.40
2024-02-23T06:23:55.200Z,96669.40
2024-02-23T06:26:23.255Z,96656.40
2024-02-23T06:28:51.422Z,96648.60
2024-02-23T06:31:19.926Z,96646.60
2024-02-23T06:33:51.053Z,96639.40
2024-02-23T06:36:19.851Z,96627.80
2024-02-23T06:38:48.991Z,96628.80
2024-02-23T06:41:18.112Z,96627.40
2024-02-23T06:43:47.165Z,96624.20
2024-02-23T06:46:16.531Z,96616.40
2024-02-23T06:48:47.192Z,96613.00
2024-02-23T06:51:17.530Z,96603.80
2024-02-23T06:53:46.647Z,96609.00
2024-02-23T06:56:15.563Z,96599.20
2024-02-23T06:58:43.924Z,96585.80
2024-02-23T07:01:14.367Z,96579.20
2024-02-23T07:03:45.101Z,96566.80
2024-02-23T07:06:13.108Z,96557.60
2024-02-23T07:08:41.312Z,96550.80
2024-02-23T07:11:09.982Z,96528.00
2024-02-23T07:13:38.119Z,96529.80
2024-02-23T07:16:06.995Z,96521.60
2024-02-23T07:18:37.263Z,96509.00
2024-02-23T07:21:05.293Z,96505.80
2024-02-23T07:23:33.418Z,96506.20
2024-02-23T07:26:01.375Z,96501.40
2024-02-23T07:28:29.728Z,96495.60
2024-02-23T07:30:57.684Z,96488.00
2024-02-23T07:33:26.298Z,96478.40
2024-02-23T07:35:54.757Z,96465.20
2024-02-23T07:38:22.730Z,96465.60
2024-02-23T07:40:51.370Z,96455.80
2024-02-23T07:43:20.177Z,96446.00
2024-02-23T07:45:48.985Z,96439.20
2024-02-23T07:48:16.861Z,96428.40
2024-02-23T07:50:46.055Z,96431.80
2024-02-23T07:53:13.996Z,96437.00
2024-02-23T07:55:42.080Z,96437.60
2024-02-23T07:58:10.968Z,96429.60
2024-02-23T08:00:39.784Z,96422.20
2024-02-23T08:03:09.442Z,96413.00
2024-02-23T08:05:39.808Z,96401.20
2024-02-23T08:08:08.236Z,96385.80
2024-02-23T08:10:36.493Z,96384.00
2024-02-23T08:13:06.833Z,96377.40
2024-02-23T08:15:37.297Z,96365.40
2024-02-23T08:18:06.274Z,96365.40
2024-02-23T08:20:35.260Z,96363.80
2024-02-23T08:23:03.658Z,96363.60
2024-02-23T08:25:31.810Z,96357.00
2024-02-23T08:28:00.616Z,96354.00
2024-02-23T08:30:28.748Z,96357.80
2024-02-23T08:32:57.159Z,96348.80
2024-02-23T08:35:25.953Z,96338.40
2024-02-23T08:37:53.964Z,96336.00
2024-02-23T08:40:22.028Z,96334.40
2024-02-23T08:42:51.481Z,96330.80
2024-02-23T08:45:19.982Z,96329.40
2024-02-23T08:47:48.100Z,96327.40
2024-02-23T08:50:18.179Z,96325.00
2024-02-23T08:52:46.367Z,96323.00
2024-02-23T08:55:14.551Z,96314.60
2024-02-23T08:57:42.651Z,96309.00
2024-02-23T09:00:14.009Z,96309.80
2024-02-23T09:02:43.634Z,96313.20
2024-02-23T09:05:12.213Z,96306.60
2024-02-23T09:07:40.351Z,96307.00
2024-02-23T09:10:10.293Z,96309.80
2024-02-23T09:12:38.148Z,96307.80
2024-02-23T09:15:07.326Z,96306.40
2024-02-23T09:17:36.224Z,96294.80
2024-02-23T09:20:04.741Z,96292.60
2024-02-23T09:22:32.698Z,96293.40
2024-02-23T09:25:00.929Z,96291.20
2024-02-23T09:27:29.143Z,96296.20
2024-02-23T09:29:57.122Z,96293.40
2024-02-23T09:32:25.183Z,96298.40
2024-02-23T09:34:53.174Z,96300.20
2024-02-23T09:37:21.854Z,96308.40
2024-02-23T09:39:50.916Z,96311.80
2024-02-23T09:42:24.126Z,96313.60
2024-02-23T09:45:01.851Z,96318.60
2024-02-23T09:47:30.820Z,96325.20
2024-02-23T09:50:02.356Z,96327.20
2024-02-23T09:52:30.465Z,96334.40
2024-02-23T09:55:00.897Z,96333.80
2024-02-23T09:57:29.545Z,96338.60
2024-02-23T09:59:57.559Z,96328.80
2024-02-23T10:02:26.494Z,96327.00
2024-02-23T10:04:58.906Z,96324.00
2024-02-23T10:07:27.052Z,96321.40
2024-02-23T10:09:56.694Z,96325.40
2024-02-23T10:12:24.937Z,96332.80
2024-02-23T10:14:54.330Z,96340.00
2024-02-23T10:17:22.308Z,96342.80
2024-02-23T10:19:50.877Z,96351.40
2024-02-23T10:22:18.805Z,96356.00
2024-02-23T10:24:46.655Z,96358.00
2024-02-23T10:27:15.608Z,96369.60
2024-02-23T10:29:43.509Z,96385.00
2024-02-23T10:32:18.164Z,96392.60
2024-02-23T10:34:52.247Z,96403.80
2024-02-23T10:37:20.998Z,96408.00
2024-02-23T10:39:52.860Z,96414.40
2024-02-23T10:42:25.969Z,96427.00
2024-02-23T10:44:56.419Z,96432.20
2024-02-23T10:47:25.423Z,96437.60
2024-02-23T10:49:56.177Z,96460.00
2024-02-23T10:52:27.784Z,96471.60
2024-02-23T10:54:58.842Z,96483.00
2024-02-23T10:57:28.410Z,96493.60
2024-02-23T10:59:56.411Z,96495.40
2024-02-23T11:02:27.406Z,96502.80
2024-02-23T11:04:58.730Z,96507.60
2024-02-23T11:07:29.436Z,96517.00
2024-02-23T11:10:02.759Z,96523.20
2024-02-23T11:12:31.194Z,96527.80
2024-02-23T11:15:01.448Z,96531.60
2024-02-23T11:17:32.608Z,96543.20
2024-02-23T11:20:07.001Z,96546.00
2024-02-23T11:22:39.077Z,96552.00
2024-02-23T11:25:11.706Z,96554.80
2024-02-23T11:27:43.637Z,96558.40
2024-02-23T11:30:13.084Z,96570.60
2024-02-23T11:32:55.664Z,96576.60
2024-02-23T11:35:28.546Z,96586.20
2024-02-23T11:38:02.003Z,96591.80
2024-02-23T11:40:31.983Z,96598.20
2024-02-23T11:43:01.837Z,96605.80
2024-02-23T11:45:32.240Z,96617.20
2024-02-23T11:48:01.246Z,96626.40
2024-02-23T11:50:29.818Z,96638.80
2024-02-23T11:52:58.767Z,96639.40
2024-02-23T11:55:28.028Z,96648.60
2024-02-23T11:58:01.732Z,96662.20
2024-02-23T12:00:37.090Z,96669.80
2024-02-23T12:03:13.856Z,96671.80
2024-02-23T12:05:42.007Z,96690.20
2024-02-23T12:08:10.146Z,96703.60
2024-02-23T12:10:39.239Z,96712.60
2024-02-23T12:13:07.501Z,96728.60
2024-02-23T12:15:35.452Z,96739.00
2024-02-23T12:18:05.321Z,96757.00
2024-02-23T12:20:37.453Z,96767.00
2024-02-23T12:23:05.923Z,96781.60
2024-02-23T12:25:35.285Z,96793.60
2024-02-23T12:28:05.078Z,96797.80
2024-02-23T12:30:34.825Z,96810.00
2024-02-23T12:33:09.471Z,96820.60
2024-02-23T12:35:37.693Z,96826.80
2024-02-23T12:38:05.784Z,96832.00
2024-02-23T12:40:34.390Z,96837.60
2024-02-23T12:43:03.039Z,96848.80
2024-02-23T12:45:32.276Z,96857.20
2024-02-23T12:48:00.194Z,96866.20
2024-02-23T12:50:32.452Z,96871.60
2024-02-23T12:53:02.217Z,96896.80
2024-02-23T12:55:30.196Z,96911.00
2024-02-23T12:57:58.204Z,96906.60
2024-02-23T13:00:26.148Z,96949.80
2024-02-23T13:02:54.329Z,96934.80
2024-02-23T13:05:22.485Z,96955.80
2024-02-23T13:07:52.058Z,96969.20
2024-02-23T13:10:20.198Z,96963.80
2024-02-23T13:12:48.941Z,96981.60
2024-02-23T13:15:20.112Z,96988.60
2024-02-23T13:17:50.153Z,97024.20
2024-02-23T13:20:19.926Z,97019.00
2024-02-23T13:22:48.587Z,97031.40
2024-02-23T13:25:16.922Z,97059.40
2024-02-23T13:27:44.926Z,97077.60
2024-02-23T13:30:13.981Z,97104.80
2024-02-23T13:32:42.547Z,97105.80
2024-02-23T13:35:10.729Z,97135.00
2024-02-23T13:37:38.731Z,97139.60
2024-02-23T13:40:10.342Z,97156.40
2024-02-23T13:42:42.562Z,97178.60
2024-02-23T13:45:10.937Z,97206.80
2024-02-23T13:47:42.972Z,97212.80
2024-02-23T13:50:11.099Z,97233.60
2024-02-23T13:52:39.165Z,97246.00
2024-02-23T13:55:08.262Z,97288.60
2024-02-23T13:57:36.917Z,97282.20
2024-02-23T14:00:09.213Z,97304.40
2024-02-23T14:02:38.186Z,97309.40
2024-02-23T14:05:09.366Z,97335.20
2024-02-23T14:07:38.178Z,97348.40
2024-02-23T14:10:07.399Z,97362.00
2024-02-23T14:12:35.615Z,97374.40
2024-02-23T14:15:04.531Z,97393.80
2024-02-23T14:17:32.651Z,97410.20
2024-02-23T14:20:02.163Z,97423.80
2024-02-23T14:22:30.935Z,97426.40
2024-02-23T14:24:59.606Z,97452.00
2024-02-23T14:27:31.705Z,97450.60
2024-02-23T14:30:00.887Z,97470.00
2024-02-23T14:32:29.291Z,97507.00
2024-02-23T14:34:58.837Z,97501.40
2024-02-23T14:37:29.168Z,97521.60
2024-02-23T14:39:57.049Z,97528.60
2024-02-23T14:42:25.041Z,97546.20
2024-02-23T14:44:53.050Z,97542.00
2024-02-23T14:47:29.082Z,97569.60
2024-02-23T14:50:00.697Z,97598.60
2024-02-23T14:52:28.866Z,97598.60
2024-02-23T14:54:56.756Z,97605.20
2024-02-23T14:57:24.739Z,97631.20
2024-02-23T14:59:53.947Z,97640.60
2024-02-23T15:02:23.889Z,97643.00
2024-02-23T15:04:51.915Z,97659.00
2024-02-23T15:07:21.077Z,97669.20
2024-02-23T15:09:49.281Z,97692.80
2024-02-23T15:12:17.670Z,97693.80
2024-02-23T15:14:46.245Z,97700.00
2024-02-23T15:17:14.197Z,97709.40
2024-02-23T15:19:42.268Z,97714.80
2024-02-23T15:22:15.006Z,97719.60
2024-02-23T15:24:43.636Z,97740.60
2024-02-23T15:27:11.492Z,97753.60
2024-02-23T15:29:39.878Z,97766.40
2024-02-23T15:32:10.643Z,97781.60
2024-02-23T15:34:38.809Z,97796.40
2024-02-23T15:37:08.488Z,97807.40
2024-02-23T15:39:36.549Z,97824.60
2024-02-23T15:42:05.187Z,97829.00
2024-02-23T15:44:33.784Z,97845.40
2024-02-23T15:47:01.891Z,97852.00
2024-02-23T15:49:51.020Z,97866.20
2024-02-23T15:52:18.008Z,97879.20
2024-02-23T15:54:45.919Z,97885.80
2024-02-23T15:57:15.125Z,97884.60
2024-02-23T15:59:43.627Z,97904.00
2024-02-23T16:02:13.231Z,97912.40
2024-02-23T16:04:41.120Z,97912.20
2024-02-23T16:07:10.645Z,97933.00
2024-02-23T16:09:39.256Z,97946.80
2024-02-23T16:12:11.242Z,97955.80
2024-02-23T16:14:39.341Z,97974.60
2024-02-23T16:17:09.110Z,97978.00
2024-02-23T16:19:37.263Z,97987.20
2024-02-23T16:22:06.212Z,97994.60
2024-02-23T16:24:34.082Z,98007.00
2024-02-23T16:27:01.992Z,98016.00
2024-02-23T16:29:32.304Z,98009.00
2024-02-23T16:32:00.351Z,98046.40
2024-02-23T16:34:29.080Z,98040.40
2024-02-23T16:36:57.188Z,98050.80
2024-02-23T16:39:26.479Z,98053.80
2024-02-23T16:41:56.284Z,98078.20
2024-02-23T16:44:24.594Z,98079.80
2024-02-23T16:46:52.895Z,98096.60
2024-02-23T16:49:21.072Z,98097.80
2024-02-23T16:51:49.009Z,98112.20
2024-02-23T16:54:18.265Z,98127.00
2024-02-23T16:56:46.887Z,98141.60
2024-02-23T16:59:16.054Z,98148.40
2024-02-23T17:01:47.871Z,98158.20
2024-02-23T17:04:18.931Z,98152.80
2024-02-23T17:06:46.934Z,98169.60
2024-02-23T17:09:15.099Z,98171.00
2024-02-23T17:11:43.350Z,98180.80
2024-02-23T17:14:11.533Z,98184.80
2024-02-23T17:16:39.430Z,98205.40
2024-02-23T17:19:07.360Z,98192.20
2024-02-23T17:21:36.115Z,98205.60
2024-02-23T17:24:07.501Z,98204.00
2024-02-23T17:26:36.005Z,98212.80
2024-02-23T17:29:04.258Z,98220.60
2024-02-23T17:31:32.601Z,98229.80
2024-02-23T17:34:01.961Z,98235.00
2024-02-23T17:36:30.832Z,98248.60
2024-02-23T17:38:59.904Z,98252.20
2024-02-23T17:41:28.238Z,98255.00
2024-02-23T17:43:57.072Z,98268.60
2024-02-23T17:46:28.556Z,98261.20
2024-02-23T17:48:56.706Z,98273.00
2024-02-23T17:51:24.976Z,98285.40
2024-02-23T17:53:54.246Z,98291.00
2024-02-23T17:56:22.793Z,98305.60
2024-02-23T17:58:50.961Z,98302.00
2024-02-23T18:01:21.255Z,98310.80
2024-02-23T18:03:50.450Z,98317.40
2024-02-23T18:06:18.888Z,98322.60
2024-02-23T18:08:49.134Z,98337.60
2024-02-23T18:11:17.747Z,98341.40
2024-02-23T18:13:46.030Z,98341.00
2024-02-23T18:16:20.776Z,98355.40
2024-02-23T18:18:49.254Z,98364.60
2024-02-23T18:21:19.510Z,98361.20
2024-02-23T18:23:47.613Z,98370.20
2024-02-23T18:26:19.006Z,98384.80
2024-02-23T18:28:48.049Z,98401.00
2024-02-23T18:31:20.980Z,98402.00
2024-02-23T18:33:49.291Z,98408.40
2024-02-23T18:36:19.080Z,98410.80
2024-02-23T18:38:47.124Z,98427.20
2024-02-23T18:41:16.545Z,98435.20
2024-02-23T18:43:47.414Z,98431.80
2024-02-23T18:46:16.846Z,98458.20
2024-02-23T18:48:47.310Z,98461.60
2024-02-23T18:51:15.437Z,98443.60
2024-02-23T18:53:45.553Z,98466.80
2024-02-23T18:56:13.941Z,98466.00
2024-02-23T18:58:41.960Z,98483.00
2024-02-23T19:01:12.515Z,98484.20
2024-02-23T19:03:40.501Z,98487.40
2024-02-23T19:06:10.089Z,98500.80
2024-02-23T19:08:38.357Z,98504.20
2024-02-23T19:11:07.807Z,98521.20
2024-02-23T19:13:35.904Z,98513.60
2024-02-23T19:16:04.095Z,98530.20
2024-02-23T19:18:32.222Z,98540.00
2024-02-23T19:21:00.186Z,98545.20
2024-02-23T19:23:28.395Z,98557.20
2024-02-23T19:25:57.072Z,98555.20
2024-02-23T19:28:25.011Z,98571.00
2024-02-23T19:30:54.222Z,98577.40
2024-02-23T19:33:22.184Z,98590.80
2024-02-23T19:35:50.253Z,98606.40
2024-02-23T19:38:18.634Z,98602.60
2024-02-23T19:40:47.646Z,98617.60
2024-02-23T19:43:16.205Z,98635.40
2024-02-23T19:45:44.190Z,98640.20
2024-02-23T19:48:12.391Z,98639.40
2024-02-23T19:50:40.383Z,98649.80
2024-02-23T19:53:08.767Z,98658.80
2024-02-23T19:55:41.809Z,98664.20
2024-02-23T19:58:09.782Z,98666.00
2024-02-23T20:00:41.466Z,98676.60
2024-02-23T20:03:10.756Z,98683.60
2024-02-23T20:05:39.064Z,98694.60
2024-02-23T20:08:07.928Z,98703.00
2024-02-23T20:10:36.006Z,98713.00
2024-02-23T20:13:06.833Z,98718.00
2024-02-23T20:15:34.869Z,98725.80
2024-02-23T20:18:04.692Z,98724.20
2024-02-23T20:20:36.267Z,98720.40
2024-02-23T20:23:04.685Z,98720.00
2024-02-23T20:25:35.127Z,98722.40
2024-02-23T20:28:03.138Z,98727.40
2024-02-23T20:30:31.142Z,98741.60
2024-02-23T20:33:01.061Z,98740.80
2024-02-23T20:35:29.853Z,98757.40
2024-02-23T20:37:59.580Z,98750.20
2024-02-23T20:40:28.035Z,98757.60
2024-02-23T20:42:55.977Z,98769.00
2024-02-23T20:45:24.115Z,98765.80
2024-02-23T20:47:52.097Z,98769.60
2024-02-23T20:50:21.490Z,98763.40
2024-02-23T20:52:49.506Z,98754.60
2024-02-23T20:55:17.736Z,98776.80
2024-02-23T20:57:45.772Z,98776.80
2024-02-23T21:00:14.199Z,98783.00
2024-02-23T21:02:42.198Z,98787.40
2024-02-23T21:05:10.493Z,98799.80
2024-02-23T21:07:38.904Z,98803.60
2024-02-23T21:10:09.279Z,98798.40
2024-02-23T21:12:38.643Z,98807.00
2024-02-23T21:15:07.704Z,98809.60
2024-02-23T21:17:35.813Z,98829.40
2024-02-23T21:20:04.667Z,98828.20
2024-02-23T21:22:33.035Z,98828.40
2024-02-23T21:25:01.556Z,98834.40
2024-02-23T21:27:30.743Z,98842.60
2024-02-23T21:29:59.296Z,98854.00
2024-02-23T21:32:28.129Z,98846.20
2024-02-23T21:34:57.823Z,98846.00
2024-02-23T21:37:25.844Z,98852.20
2024-02-23T21:39:54.201Z,98860.40
2024-02-23T21:42:22.082Z,98863.40
2024-02-23T21:44:50.631Z,98865.60
2024-02-23T21:47:18.670Z,98869.60
2024-02-23T21:49:47.472Z,98871.20
2024-02-23T21:52:16.108Z,98872.60
2024-02-23T21:54:46.089Z,98877.60
2024-02-23T21:57:14.404Z,98876.40
2024-02-23T21:59:43.142Z,98882.20
2024-02-23T22:02:11.566Z,98888.00
2024-02-23T22:04:40.919Z,98877.60
2024-02-23T22:07:14.089Z,98882.00
2024-02-23T22:09:46.129Z,98888.60
2024-02-23T22:12:15.692Z,98897.20
2024-02-23T22:14:44.233Z,98900.40
2024-02-23T22:17:13.067Z,98893.20
2024-02-23T22:19:41.640Z,98899.00
2024-02-23T22:22:10.205Z,98910.20
2024-02-23T22:24:39.728Z,98914.20
2024-02-23T22:27:08.914Z,98921.20
2024-02-23T22:29:36.993Z,98925.00
2024-02-23T22:32:06.416Z,98926.40
2024-02-23T22:34:38.858Z,98932.40
2024-02-23T22:37:06.791Z,98930.80
2024-02-23T22:39:34.657Z,98932.00
2024-02-23T22:42:03.518Z,98936.40
2024-02-23T22:44:32.714Z,98943.20
2024-02-23T22:47:01.016Z,98947.20
2024-02-23T22:49:29.230Z,98946.40
2024-02-23T22:51:57.419Z,98959.20
2024-02-23T22:54:25.353Z,98965.00
2024-02-23T22:56:53.495Z,98968.20
2024-02-23T22:59:22.941Z,98971.60
2024-02-23T23:01:50.882Z,98973.40
2024-02-23T23:04:19.007Z,98966.00
2024-02-23T23:06:47.300Z,98973.20
2024-02-23T23:09:17.606Z,98979.20
2024-02-23T23:11:45.925Z,98979.20
2024-02-23T23:14:14.858Z,98985.80
2024-02-23T23:16:42.764Z,98983.00
2024-02-23T23:19:11.033Z,98987.60
2024-02-23T23:21:38.981Z,98992.40
2024-02-23T23:24:07.269Z,98999.40
2024-02-23T23:26:35.347Z,99004.40
2024-02-23T23:29:03.320Z,99006.80
2024-02-23T23:31:31.197Z,99004.80
2024-02-23T23:34:01.303Z,99013.40
2024-02-23T23:36:29.284Z,99021.80
2024-02-23T23:38:57.298Z,99019.00
2024-02-23T23:41:27.612Z,99024.20
2024-02-23T23:43:58.205Z,99025.60
2024-02-23T23:46:26.132Z,99027.20
2024-02-23T23:48:55.295Z,99032.60
2024-02-23T23:51:23.414Z,99031.80
2024-02-23T23:53:56.730Z,99043.40
2024-02-23T23:56:25.693Z,99038.80
2024-02-23T23:58:53.778Z,99035.20
